Gays Creek, Kentucky
Current Conditions -  °F | °C
As of 2:53 AM on Saturday 29 Nov 2014 (Local Time) from KJKL Reporting Station
Clear Clear  
Wind Chill: 34°   Ceiling: Unl
Heat Index: 34°   Visibility: 10mi
Dew Point: 17°   Wind: 3mph
Humidity: 50%   Direction: 190°S
Pressure: 30.13"   Gusts: NA
Location:  37.33°N, 83.43°W
Report Text: KJKL 290753Z AUTO 19003KT 10SM CLR 01/M08 A3013 RMK AO2 SLP210 T00111083
Loading
Personal Weather Stations






























Interactive Weather Map New forecast layout! Learn more

10-Day Weather Forecast

Advertisements
Track Severe Weather on mobile